Metar z połowy godziny Komunikat METAR ze strony awiacja.imgw.pl Metar G30 EPMO METAR EPMO 190130Z VRB02KT CAVOK 14/13 Q1018 =